LAN24Q KSFO-LEBL
Flight info
| Callsign | LAN24Q |
|---|---|
| Flight time | N/A |
| Altitude | 33000 |
| Route | SNTNA2 DEDHD DCT LKV DCT MLP DCT ITREK DCT 55N097W 58N090W/N0490F350 60N082W 65N067W/M084F350 DCT EPMAN DCT 66N050W 65N040W 62N030W/M084F370 58N020W DCT VENER/N0480F370 DCT KOKIB DCT BUNON DCT LEDGO DCT DOLUR DCT TERKU DCT KORER UM616 LUGEN/N0467F250 UM616 TUPAR DCT CNA DCT SECHE DCT AGN DCT TOU DCT LOMRA DCT ROCAN DCT PUMAL |
| Aircraft | B77W/H-SDE1E2E3FGHIJ2J3J4J5M1RWXY/LB1D1 |
Departure
| Time | 2026-05-06 01:54 |
|---|---|
| Airport | San Francisco International Airport (KSFO) |
Arrival
| Time | N/A |
|---|---|
| Airport | Josep Tarradellas Barcelona-El Prat Airport (LEBL) |
| Time | Latitude | Longitude | Altitude | Speed | Heading |
|---|---|---|---|---|---|
| 2026-05-06 01:47 | 37.61716 | -122.37924 | 29 ft | 0 kts | 43° |
| 2026-05-06 01:47 | 37.61749 | -122.37885 | 31 ft | 18 kts | 43° |
| 2026-05-06 01:47 | 37.61790 | -122.37744 | 30 ft | 19 kts | 104° |
| 2026-05-06 01:47 | 37.61746 | -122.37589 | 28 ft | 19 kts | 111° |
| 2026-05-06 01:48 | 37.61691 | -122.37440 | 31 ft | 19 kts | 118° |
| 2026-05-06 01:48 | 37.61629 | -122.37295 | 28 ft | 19 kts | 118° |
| 2026-05-06 01:48 | 37.61568 | -122.37149 | 31 ft | 19 kts | 118° |
| 2026-05-06 01:48 | 37.61507 | -122.37003 | 30 ft | 19 kts | 118° |
| 2026-05-06 01:49 | 37.61431 | -122.36870 | 30 ft | 19 kts | 133° |
| 2026-05-06 01:49 | 37.61352 | -122.36741 | 28 ft | 19 kts | 122° |
| 2026-05-06 01:49 | 37.61288 | -122.36597 | 31 ft | 19 kts | 118° |
| 2026-05-06 01:49 | 37.61227 | -122.36452 | 29 ft | 19 kts | 117° |
| 2026-05-06 01:50 | 37.61167 | -122.36306 | 28 ft | 19 kts | 117° |
| 2026-05-06 01:50 | 37.61106 | -122.36160 | 30 ft | 19 kts | 117° |
| 2026-05-06 01:50 | 37.61053 | -122.36010 | 27 ft | 19 kts | 98° |
| 2026-05-06 01:50 | 37.61120 | -122.35890 | 26 ft | 17 kts | 27° |
| 2026-05-06 01:51 | 37.61205 | -122.35918 | 28 ft | 9 kts | 302° |
| 2026-05-06 01:51 | 37.61208 | -122.35928 | 29 ft | 0 kts | 295° |
| 2026-05-06 01:53 | 37.61235 | -122.36000 | 31 ft | 35 kts | 295° |
| 2026-05-06 01:53 | 37.61504 | -122.36635 | 30 ft | 128 kts | 298° |
| 2026-05-06 01:53 | 37.62056 | -122.37948 | 32 ft | 211 kts | 297° |
| 2026-05-06 01:54 | 37.62843 | -122.39706 | 835 ft | 233 kts | 299° |
| 2026-05-06 01:54 | 37.63581 | -122.41484 | 2621 ft | 217 kts | 294° |
| 2026-05-06 01:54 | 37.64224 | -122.43119 | 4391 ft | 204 kts | 297° |
| 2026-05-06 01:54 | 37.64915 | -122.44735 | 5461 ft | 213 kts | 301° |
| 2026-05-06 01:55 | 37.65649 | -122.46406 | 6514 ft | 222 kts | 303° |
| 2026-05-06 01:55 | 37.66585 | -122.47960 | 7363 ft | 225 kts | 331° |
| 2026-05-06 01:55 | 37.68058 | -122.48624 | 8094 ft | 235 kts | 352° |
| 2026-05-06 01:55 | 37.69697 | -122.49029 | 9048 ft | 244 kts | 349° |
| 2026-05-06 01:56 | 37.71392 | -122.49548 | 9947 ft | 259 kts | 349° |
| 2026-05-06 01:56 | 37.73214 | -122.49566 | 10622 ft | 269 kts | 20° |
| 2026-05-06 01:56 | 37.74934 | -122.48513 | 11407 ft | 283 kts | 29° |
| 2026-05-06 01:56 | 37.76707 | -122.47223 | 12112 ft | 304 kts | 29° |
| 2026-05-06 01:57 | 37.78608 | -122.45870 | 12938 ft | 319 kts | 28° |
| 2026-05-06 01:57 | 37.80593 | -122.44605 | 13911 ft | 328 kts | 22° |
| 2026-05-06 01:57 | 37.82776 | -122.43658 | 14847 ft | 335 kts | 17° |
| 2026-05-06 01:57 | 37.85044 | -122.42841 | 15819 ft | 341 kts | 16° |
| 2026-05-06 01:58 | 37.87360 | -122.42036 | 16669 ft | 352 kts | 16° |
| 2026-05-06 01:58 | 37.89773 | -122.41185 | 17239 ft | 369 kts | 17° |
| 2026-05-06 01:58 | 37.92310 | -122.40267 | 17678 ft | 388 kts | 17° |
| 2026-05-06 01:58 | 37.94900 | -122.39307 | 18375 ft | 398 kts | 17° |
| 2026-05-06 01:59 | 37.97618 | -122.38282 | 19068 ft | 405 kts | 18° |
| 2026-05-06 01:59 | 38.00336 | -122.37243 | 19800 ft | 410 kts | 18° |
| 2026-05-06 01:59 | 38.03042 | -122.36202 | 20543 ft | 414 kts | 18° |
| 2026-05-06 01:59 | 38.05820 | -122.35126 | 21301 ft | 418 kts | 18° |
| 2026-05-06 02:00 | 38.08615 | -122.34041 | 22058 ft | 421 kts | 18° |
| 2026-05-06 02:00 | 38.11421 | -122.32950 | 22791 ft | 424 kts | 18° |
| 2026-05-06 02:00 | 38.14264 | -122.31842 | 23479 ft | 427 kts | 18° |
| 2026-05-06 02:00 | 38.17084 | -122.30742 | 24048 ft | 430 kts | 19° |
| 2026-05-06 02:01 | 38.19963 | -122.29618 | 24593 ft | 433 kts | 19° |
| 2026-05-06 02:01 | 38.22836 | -122.28497 | 25090 ft | 436 kts | 19° |
| 2026-05-06 02:01 | 38.25750 | -122.27358 | 25606 ft | 439 kts | 19° |
| 2026-05-06 02:01 | 38.28681 | -122.26212 | 26091 ft | 442 kts | 18° |
| 2026-05-06 02:02 | 38.31639 | -122.25054 | 26557 ft | 444 kts | 18° |
| 2026-05-06 02:02 | 38.34615 | -122.23889 | 27001 ft | 447 kts | 18° |
| 2026-05-06 02:02 | 38.37557 | -122.22737 | 27410 ft | 450 kts | 18° |
| 2026-05-06 02:02 | 38.40556 | -122.21560 | 27807 ft | 452 kts | 18° |
| 2026-05-06 02:03 | 38.43570 | -122.20376 | 28186 ft | 454 kts | 19° |
| 2026-05-06 02:03 | 38.46604 | -122.19184 | 28540 ft | 456 kts | 18° |
| 2026-05-06 02:03 | 38.49648 | -122.17987 | 28899 ft | 458 kts | 18° |
| 2026-05-06 02:03 | 38.52677 | -122.16799 | 29611 ft | 452 kts | 18° |
| 2026-05-06 02:04 | 38.55640 | -122.15631 | 30210 ft | 447 kts | 18° |
| 2026-05-06 02:04 | 38.58625 | -122.14453 | 30434 ft | 452 kts | 18° |
| 2026-05-06 02:04 | 38.64709 | -122.12044 | 30540 ft | 462 kts | 18° |
| 2026-05-06 02:05 | 38.67767 | -122.10833 | 30698 ft | 464 kts | 18° |
| 2026-05-06 02:05 | 38.70884 | -122.09600 | 30927 ft | 464 kts | 18° |
| 2026-05-06 02:05 | 38.73935 | -122.08393 | 31115 ft | 464 kts | 18° |
| 2026-05-06 02:05 | 38.77034 | -122.07165 | 31281 ft | 466 kts | 18° |
| 2026-05-06 02:06 | 38.80156 | -122.05927 | 31419 ft | 467 kts | 18° |
| 2026-05-06 02:06 | 38.83245 | -122.04701 | 31552 ft | 468 kts | 18° |
| 2026-05-06 02:06 | 38.86363 | -122.03462 | 31703 ft | 469 kts | 18° |
| 2026-05-06 02:06 | 38.89485 | -122.02220 | 31848 ft | 470 kts | 18° |
| 2026-05-06 02:07 | 38.92613 | -122.00974 | 31979 ft | 471 kts | 18° |
| 2026-05-06 02:07 | 38.95745 | -121.99725 | 32095 ft | 471 kts | 18° |
| 2026-05-06 02:07 | 39.01997 | -121.97229 | 32297 ft | 473 kts | 18° |
| 2026-05-06 02:08 | 39.05153 | -121.95967 | 32485 ft | 473 kts | 18° |
| 2026-05-06 02:08 | 39.08290 | -121.94712 | 32688 ft | 471 kts | 18° |
| 2026-05-06 02:08 | 39.11419 | -121.93459 | 32880 ft | 470 kts | 18° |
| 2026-05-06 02:08 | 39.14564 | -121.92199 | 32947 ft | 471 kts | 18° |
| 2026-05-06 02:09 | 39.20784 | -121.89701 | 33013 ft | 471 kts | 18° |
| 2026-05-06 02:09 | 39.27057 | -121.87178 | 33024 ft | 471 kts | 18° |
| 2026-05-06 02:10 | 39.33325 | -121.84652 | 33024 ft | 471 kts | 18° |
| 2026-05-06 02:10 | 39.39553 | -121.82137 | 33046 ft | 472 kts | 18° |
| 2026-05-06 02:11 | 39.45836 | -121.79596 | 33066 ft | 472 kts | 18° |
| 2026-05-06 02:11 | 39.52074 | -121.77068 | 33050 ft | 472 kts | 19° |
| 2026-05-06 02:12 | 39.58354 | -121.74518 | 33037 ft | 471 kts | 19° |
| 2026-05-06 02:12 | 39.64622 | -121.71968 | 33032 ft | 471 kts | 19° |
| 2026-05-06 02:13 | 39.70835 | -121.69436 | 33040 ft | 471 kts | 19° |
| 2026-05-06 02:13 | 39.77093 | -121.66881 | 33035 ft | 471 kts | 19° |
| 2026-05-06 02:14 | 39.83336 | -121.64325 | 33034 ft | 471 kts | 19° |
| 2026-05-06 02:14 | 39.89598 | -121.61759 | 33033 ft | 471 kts | 19° |
| 2026-05-06 02:15 | 39.95875 | -121.59182 | 33040 ft | 472 kts | 19° |
| 2026-05-06 02:15 | 40.02118 | -121.56613 | 33031 ft | 472 kts | 19° |
| 2026-05-06 02:16 | 40.08396 | -121.54024 | 33025 ft | 473 kts | 18° |
| 2026-05-06 02:16 | 40.14630 | -121.51449 | 33019 ft | 472 kts | 18° |
| 2026-05-06 02:17 | 40.20909 | -121.48851 | 33004 ft | 472 kts | 18° |